Mountain Home, ID (83647)

5:41 AM MST on December 10, 2016 (GMT -0700)
carrie circle | | Change Station
Active Advisory: Winter Weather Advisory

Elev 3248 ft 43.16 °N, 115.71 °W | Updated 17 seconds ago

Rain
Rain
37.0 °F
Feels Like 37 °F
N
0.0
Wind Variable Wind from NW

Today
High -- | Low -- °F
--% Chance of Precip.
Yesterday
High -- | Low -- °F
Precip. -- in
Pressure 29.86 in
Visibility 8.0 miles
Clouds Few 300 ft
Overcast 4600 ft
Windchill 37 °F
Dew Point 36 °F
Humidity 98%
Rainfall 0.02 in
Snow Depth Not available.
8:04 AM 5:07 PM
Waxing Gibbous, 83% visible
SPECI KMUO 101223Z AUTO 10007KT 8SM -RA FEW003 OVC046 01/01 A2986 RMK AO2 RAE10DZB10E18DZB20E22RAB22 CIG 002 RWY30 FZRANO $
Pressure 29.86 in
Visibility 8.0 miles
Clouds Few 300 ft
Overcast 4600 ft
Windchill 37 °F
Dew Point 36 °F
Humidity 98%
Rainfall 0.02 in
Snow Depth Not available.
8:04 AM 5:07 PM
Waxing Gibbous, 83% visible
SPECI KMUO 101223Z AUTO 10007KT 8SM -RA FEW003 OVC046 01/01 A2986 RMK AO2 RAE10DZB10E18DZB20E22RAB22 CIG 002 RWY30 FZRANO $

10-Day Weather Forecast

Almanac

Astronomy

Dec. 10, 2016 Rise Set
Actual Time
Civil Twilight
Nautical Twilight
Astronomical Twilight
Moon
Length of Visible Light
Length of Day
Tomorrow will be .
, % of the Moon is Illuminated

Today's Extremes

State Highs State Lows

Community

WunderPhotos

Upload Photos

1,956,540 photos uploaded!

WunderBlog® & News

Nearby

Air Quality

  Air Quality AQ Index Pollutant
Not available.

Snow Depth

Station Depth Elevation

Earthquake Activity

City Distance Mag. Time & Date
Minimum magnitude displayed is 2.5.

Coastal Water Temperatures

Place Temperature

Stations

Nearby Weather Stations

Station Location Temp. Windchill Dew Point Humidity Wind Precip. Elev Updated Type
                   

Watches & Warnings

Winter Weather Advisory
Issued: 4:56 AM MST Dec. 10, 2016 – National Weather Service

... Winter Weather Advisory now in effect until 11 am MST this
morning...

* freezing rain amounts... freezing rain is expected to total 0.20
to 0.40 inches by late morning. Total ice accumulation of 1/4
to 3/8 inch is expected on non-treated surfaces.

* Impacts... freezing rain accumulation on untreated roads will
make driving difficult. Accumulations on trees will likely
bring branches and some diseased or otherwise weakened trees
down.

Precautionary/preparedness actions...

A Winter Weather Advisory means that periods of snow... sleet... or
freezing rain will cause travel difficulties. Be prepared for
slippery roads and limited visibilities... and use caution while
driving.